createdAt,value
2024-05-09T00:09:01.125Z,100.00
2024-05-09T00:19:03.132Z,100.00
2024-05-09T00:29:05.360Z,100.00
2024-05-09T00:39:07.241Z,100.00
2024-05-09T00:49:09.549Z,100.00
2024-05-09T00:59:13.094Z,100.00
2024-05-09T01:09:15.373Z,100.00
2024-05-09T01:19:26.971Z,100.00
2024-05-09T01:29:29.070Z,100.00
2024-05-09T01:39:31.068Z,95.92
2024-05-09T01:49:36.342Z,77.51
2024-05-09T01:59:38.274Z,74.61
2024-05-09T02:09:42.146Z,75.57
2024-05-09T02:19:44.219Z,68.48
2024-05-09T02:29:46.165Z,63.50
2024-05-09T02:39:48.015Z,61.01
2024-05-09T02:49:50.082Z,64.48
2024-05-09T02:59:53.050Z,73.63
2024-05-09T03:09:55.003Z,83.83
2024-05-09T03:19:57.068Z,71.16
2024-05-09T03:29:58.830Z,66.64
2024-05-09T03:40:02.693Z,61.44
2024-05-09T03:50:05.917Z,60.27
2024-05-09T04:00:17.920Z,58.59
2024-05-09T04:10:33.928Z,60.16
2024-05-09T04:20:39.928Z,58.46
2024-05-09T04:30:43.456Z,62.16
2024-05-09T04:40:45.925Z,60.87
2024-05-09T04:50:48.243Z,58.83
2024-05-09T05:00:50.373Z,56.61
2024-05-09T05:10:52.445Z,54.67
2024-05-09T05:20:56.452Z,55.09
2024-05-09T05:31:00.357Z,50.71
2024-05-09T05:41:03.268Z,49.97
2024-05-09T05:51:08.921Z,48.88
2024-05-09T06:01:12.382Z,46.91
2024-05-09T06:11:15.597Z,46.86
2024-05-09T06:21:29.681Z,46.94
2024-05-09T06:31:31.750Z,46.75
2024-05-09T06:41:33.808Z,46.36
2024-05-09T06:51:39.412Z,43.21
2024-05-09T07:01:41.810Z,43.40
2024-05-09T07:11:43.802Z,41.47
2024-05-09T07:21:45.800Z,41.08
2024-05-09T07:31:48.839Z,42.58
2024-05-09T07:41:51.389Z,41.52
2024-05-09T07:53:21.663Z,35.44
2024-05-09T08:02:18.276Z,33.97
2024-05-09T08:12:20.630Z,36.10
2024-05-09T08:22:22.695Z,33.12
2024-05-09T08:32:27.409Z,33.56
2024-05-09T08:42:36.524Z,36.49
2024-05-09T08:52:42.055Z,33.01
2024-05-09T09:02:45.454Z,33.48
2024-05-09T09:12:58.774Z,32.63
2024-05-09T09:23:01.782Z,31.21
2024-05-09T09:33:04.156Z,22.90
2024-05-09T09:43:14.297Z,24.57
2024-05-09T09:53:17.120Z,19.44
2024-05-09T10:03:19.296Z,19.87
2024-05-09T10:13:35.059Z,19.25
2024-05-09T10:23:37.243Z,20.67
2024-05-09T10:33:51.180Z,20.64
2024-05-09T10:43:54.299Z,21.86
2024-05-09T10:53:59.202Z,19.80
2024-05-09T11:04:04.262Z,19.79
2024-05-09T11:14:15.483Z,21.31
2024-05-09T11:24:17.686Z,21.56
2024-05-09T11:34:19.763Z,18.71
2024-05-09T11:44:21.967Z,17.16
2024-05-09T12:25:20.266Z,14.82
2024-05-09T12:35:22.201Z,13.79
2024-05-09T12:45:24.138Z,14.50
2024-05-09T12:55:26.946Z,11.92
2024-05-09T13:05:29.356Z,11.71
2024-05-09T13:25:55.350Z,11.43
2024-05-09T13:35:57.382Z,12.64
2024-05-09T13:45:59.554Z,12.92
2024-05-09T13:56:01.541Z,12.54
2024-05-09T14:06:03.725Z,12.89
2024-05-09T14:16:06.495Z,13.16
2024-05-09T16:32:44.478Z,14.97
2024-05-09T16:42:46.585Z,15.75
2024-05-09T16:52:48.632Z,16.33
2024-05-09T17:07:00.519Z,16.59
2024-05-09T17:17:02.691Z,20.79
2024-05-09T17:27:05.065Z,22.66
2024-05-09T17:37:07.102Z,24.76
2024-05-09T17:47:08.994Z,25.58
2024-05-09T17:57:10.999Z,26.12
2024-05-09T18:07:13.103Z,27.32
2024-05-09T18:17:15.313Z,29.59
2024-05-09T18:27:17.413Z,31.04
2024-05-09T18:37:19.551Z,33.04
2024-05-09T18:47:21.957Z,34.08
2024-05-09T18:57:25.105Z,34.85
2024-05-09T19:07:27.180Z,36.59
2024-05-09T19:17:29.983Z,37.98
2024-05-09T19:27:32.243Z,39.62
2024-05-09T19:37:34.263Z,40.51
2024-05-09T19:47:36.333Z,41.85
2024-05-09T19:57:38.392Z,43.62
2024-05-09T20:07:40.251Z,44.36
2024-05-09T20:17:42.266Z,46.27
2024-05-09T20:27:44.730Z,47.43
2024-05-09T20:37:46.777Z,48.29
2024-05-09T20:47:50.264Z,50.82
2024-05-09T20:57:52.585Z,50.62
2024-05-09T21:07:54.503Z,53.07
2024-05-09T21:17:56.492Z,54.36
2024-05-09T21:27:59.025Z,57.94
2024-05-09T21:38:00.991Z,61.70
2024-05-09T21:48:04.168Z,64.35
2024-05-09T21:58:06.278Z,63.92
2024-05-09T22:08:08.430Z,65.12
2024-05-09T22:18:11.317Z,71.17
2024-05-09T22:28:15.892Z,72.90
2024-05-09T22:38:17.971Z,78.32
2024-05-09T22:48:20.145Z,83.75
2024-05-09T22:58:23.308Z,88.51
2024-05-09T23:08:25.538Z,93.36
2024-05-09T23:18:27.439Z,99.13
2024-05-09T23:28:29.403Z,100.00
2024-05-09T23:38:31.464Z,100.00
2024-05-09T23:48:33.450Z,100.00
2024-05-09T23:58:35.504Z,100.00
